createdAt,value
2022-12-14T00:00:28.435Z,43
2022-12-14T00:02:30.209Z,40.5
2022-12-14T00:04:31.823Z,50.5
2022-12-14T00:05:34.291Z,49.3
2022-12-14T00:07:36.017Z,38
2022-12-14T00:09:37.742Z,48.1
2022-12-14T00:15:46.217Z,44.2
2022-12-14T00:17:47.879Z,43.1
2022-12-14T00:19:49.635Z,38.2
2022-12-14T00:23:53.065Z,43.5
2022-12-14T00:32:03.227Z,47.8
2022-12-14T00:34:04.971Z,47.8
2022-12-14T00:42:15.112Z,42.6
2022-12-14T00:50:22.017Z,38.8
2022-12-14T00:52:23.739Z,39.7
2022-12-14T00:54:25.475Z,44.9
2022-12-14T01:00:33.884Z,33.6
2022-12-14T01:01:36.536Z,38.5
2022-12-14T01:03:38.165Z,36.8
2022-12-14T01:05:39.813Z,38.7
2022-12-14T01:07:41.542Z,36.9
2022-12-14T01:09:46.533Z,38.6
2022-12-14T01:11:48.258Z,38.2
2022-12-14T01:13:49.986Z,37.4
2022-12-14T01:17:53.455Z,42.4
2022-12-14T01:19:55.183Z,40.4
2022-12-14T01:21:56.922Z,36.7
2022-12-14T01:26:03.589Z,40.2
2022-12-14T01:28:05.323Z,37.6
2022-12-14T01:30:07.058Z,40.8
2022-12-14T01:32:08.779Z,38.3
2022-12-14T01:34:10.497Z,37.8
2022-12-14T01:36:12.224Z,34.8
2022-12-14T01:38:17.203Z,32.9
2022-12-14T01:40:18.916Z,34.9
2022-12-14T01:42:20.640Z,47.2
2022-12-14T01:44:22.373Z,37.9
2022-12-14T01:46:24.098Z,42.3
2022-12-14T01:48:25.815Z,39.8
2022-12-14T01:50:27.519Z,34.7
2022-12-14T01:52:32.479Z,38.4
2022-12-14T01:54:34.182Z,41.7
2022-12-14T01:56:35.896Z,29.4
2022-12-14T02:05:48.478Z,50.7
2022-12-14T02:07:50.189Z,42.1
2022-12-14T02:09:51.911Z,47.1
2022-12-14T02:15:57.081Z,41.4
2022-12-14T02:17:58.750Z,42.9
2022-12-14T02:20:03.701Z,44.7
2022-12-14T02:22:05.410Z,43.4
2022-12-14T02:24:07.110Z,51.2
2022-12-14T02:26:08.823Z,49.9
2022-12-14T02:28:10.519Z,40.5
2022-12-14T02:30:12.008Z,36.5
2022-12-14T02:34:18.615Z,42.6
2022-12-14T02:36:20.310Z,38.8
2022-12-14T02:38:22.024Z,40.6
2022-12-14T02:40:23.712Z,41.6
2022-12-14T02:42:25.392Z,40.1
2022-12-14T02:44:27.092Z,54.6
2022-12-14T02:46:28.835Z,48.4
2022-12-14T02:52:37.110Z,51.6
2022-12-14T02:55:06.014Z,40
2022-12-14T02:57:07.718Z,38.2
2022-12-14T02:59:09.431Z,37.9
2022-12-14T03:01:14.475Z,40.9
2022-12-14T03:03:16.045Z,44
2022-12-14T03:05:17.719Z,44
2022-12-14T03:07:19.399Z,50.6
2022-12-14T03:13:25.107Z,33.1
2022-12-14T03:15:29.382Z,51.4
2022-12-14T03:17:31.024Z,46.7
2022-12-14T03:19:32.702Z,38.7
2022-12-14T03:21:34.391Z,42.6
2022-12-14T03:25:37.711Z,43.7
2022-12-14T03:27:39.387Z,45.3
2022-12-14T03:29:44.323Z,55.6
2022-12-14T03:31:49.118Z,50.5
2022-12-14T03:33:47.615Z,49.5
2022-12-14T03:35:49.293Z,50.6
2022-12-14T03:37:53.219Z,42.1
2022-12-14T03:39:52.658Z,35.9
2022-12-14T03:41:54.315Z,56.2
2022-12-14T03:43:59.293Z,50.5
2022-12-14T03:46:00.997Z,54.8
2022-12-14T03:48:02.628Z,52.4
2022-12-14T03:49:05.057Z,41.5
2022-12-14T03:53:08.371Z,42.8
2022-12-14T03:55:10.027Z,49
2022-12-14T04:01:18.368Z,50.7
2022-12-14T04:05:21.553Z,49.2
2022-12-14T04:09:24.836Z,41.6
2022-12-14T04:13:31.469Z,61.5
2022-12-14T04:15:33.106Z,51.6
2022-12-14T04:17:34.780Z,41.5
2022-12-14T04:19:36.511Z,55.5
2022-12-14T04:21:38.249Z,65.5
2022-12-14T04:23:39.989Z,46.8
2022-12-14T04:25:44.856Z,63.3
2022-12-14T04:29:48.116Z,53.8
2022-12-14T04:31:49.786Z,55.1
2022-12-14T04:37:54.666Z,50.3
2022-12-14T04:42:01.146Z,53
2022-12-14T04:44:02.789Z,45.7
2022-12-14T04:45:05.217Z,55.1
2022-12-14T04:49:08.470Z,47.2
2022-12-14T04:57:19.417Z,43.6
2022-12-14T05:03:23.349Z,45.5
2022-12-14T05:05:25.051Z,54.4
2022-12-14T05:07:29.943Z,44.3
2022-12-14T05:09:31.554Z,51.4
2022-12-14T05:11:53.041Z,45.7
2022-12-14T05:17:38.269Z,50.3
2022-12-14T05:19:39.956Z,51.3
2022-12-14T05:21:44.811Z,68.3
2022-12-14T05:23:46.467Z,44.6
2022-12-14T05:25:49.086Z,57.9
2022-12-14T05:27:49.773Z,52.4
2022-12-14T05:29:52.973Z,37.6
2022-12-14T05:31:54.568Z,53.8
2022-12-14T05:33:56.175Z,45.6
2022-12-14T05:36:01.043Z,56.1
2022-12-14T05:38:02.656Z,54.2
2022-12-14T05:40:04.264Z,57.9
2022-12-14T05:43:08.341Z,60.4
2022-12-14T05:45:09.937Z,46.5
2022-12-14T05:47:11.550Z,48
2022-12-14T05:49:16.476Z,54.9
2022-12-14T05:51:18.102Z,60.9
2022-12-14T05:53:19.719Z,41.4
2022-12-14T05:55:21.324Z,49
2022-12-14T05:57:22.964Z,53.5
2022-12-14T05:59:24.551Z,59.9
2022-12-14T06:03:31.350Z,73
2022-12-14T06:05:32.841Z,58.3
2022-12-14T06:07:34.515Z,51.1
2022-12-14T06:11:37.908Z,36.8
2022-12-14T06:13:39.535Z,45
2022-12-14T06:15:41.251Z,45.6
2022-12-14T06:17:45.971Z,44.4
2022-12-14T06:19:49.681Z,49.3
2022-12-14T06:21:49.273Z,52.5
2022-12-14T06:23:50.900Z,50.7
2022-12-14T06:25:52.571Z,53.5
2022-12-14T06:29:55.910Z,46.1
2022-12-14T06:32:00.824Z,47.7
2022-12-14T06:34:02.435Z,62.8
2022-12-14T06:36:04.033Z,50.7
2022-12-14T06:38:33.071Z,42.9
2022-12-14T06:44:41.201Z,55
2022-12-14T06:52:47.823Z,71
2022-12-14T06:54:49.502Z,46.9
2022-12-14T06:56:51.082Z,50.1
2022-12-14T07:00:57.601Z,47.5
2022-12-14T07:02:59.418Z,48.6
2022-12-14T07:07:02.428Z,47.3
2022-12-14T07:09:04.132Z,44
2022-12-14T07:13:10.827Z,44.4
2022-12-14T07:15:12.498Z,43
2022-12-14T07:17:14.182Z,60.4
2022-12-14T07:19:15.850Z,37.9
2022-12-14T07:21:17.530Z,43.7
2022-12-14T07:23:22.243Z,53.6
2022-12-14T07:25:20.836Z,42.6
2022-12-14T07:27:25.789Z,46.6
2022-12-14T07:29:34.144Z,55.8
2022-12-14T07:31:29.167Z,47
2022-12-14T07:32:31.529Z,43.8
2022-12-14T07:34:33.263Z,47.8
2022-12-14T07:36:34.892Z,43.6
2022-12-14T07:40:41.474Z,49.9
2022-12-14T07:42:43.147Z,54.9
2022-12-14T07:44:44.819Z,46.8
2022-12-14T07:48:48.173Z,43.9
2022-12-14T07:50:49.820Z,40.2
2022-12-14T07:52:51.499Z,34.1
2022-12-14T07:54:56.513Z,63.7
2022-12-14T07:56:58.212Z,32
2022-12-14T07:58:59.877Z,45.8
2022-12-14T08:01:01.556Z,59.4
2022-12-14T08:03:03.197Z,46.5
2022-12-14T08:09:11.544Z,53.8
2022-12-14T08:19:19.696Z,45
2022-12-14T08:25:28.016Z,40.6
2022-12-14T08:27:29.674Z,45
2022-12-14T08:28:32.080Z,44.9
2022-12-14T08:30:33.730Z,45.8
2022-12-14T08:32:35.343Z,54.4
2022-12-14T08:34:36.989Z,47.6
2022-12-14T08:36:41.813Z,54.8
2022-12-14T08:38:43.480Z,36.9
2022-12-14T08:40:45.138Z,47.5
2022-12-14T08:42:46.824Z,40.8
2022-12-14T08:44:48.502Z,51.6
2022-12-14T08:46:50.220Z,50.3
2022-12-14T08:48:52.405Z,45.6
2022-12-14T08:50:56.665Z,61.4
2022-12-14T08:52:58.333Z,55.8
2022-12-14T08:55:00.011Z,48.7
2022-12-14T08:57:01.693Z,54.6
2022-12-14T08:59:03.415Z,50.7
2022-12-14T09:01:05.211Z,57.4
2022-12-14T09:03:07.137Z,44.6
2022-12-14T09:05:11.891Z,43
2022-12-14T09:07:13.685Z,38.7
2022-12-14T09:09:16.334Z,44.5
2022-12-14T09:11:17.272Z,32.8
2022-12-14T09:13:19.102Z,29.7
2022-12-14T09:15:20.926Z,27.6
2022-12-14T09:17:22.778Z,26.7
2022-12-14T09:19:27.837Z,23.9
2022-12-14T09:21:29.727Z,22
2022-12-14T09:23:32.139Z,26.6
2022-12-14T09:24:34.146Z,29.7
2022-12-14T09:26:36.034Z,29.2
2022-12-14T09:30:39.783Z,34.7
2022-12-14T09:32:44.913Z,29.6
2022-12-14T09:34:46.787Z,32.9
2022-12-14T09:36:48.715Z,33.1
2022-12-14T09:38:51.870Z,32.1
2022-12-14T09:40:52.493Z,29.8
2022-12-14T09:42:54.366Z,37.5
2022-12-14T09:44:56.264Z,36.3
2022-12-14T09:47:01.356Z,43.3
2022-12-14T09:49:03.236Z,29
2022-12-14T09:51:05.227Z,27
2022-12-14T09:53:06.998Z,29.7
2022-12-14T09:55:08.881Z,26.8
2022-12-14T09:57:10.779Z,30.9
2022-12-14T09:59:12.686Z,30
2022-12-14T10:01:18.303Z,27.4
2022-12-14T10:03:20.271Z,27.2
2022-12-14T10:05:21.959Z,24.2
2022-12-14T10:07:23.851Z,28.5
2022-12-14T10:09:25.752Z,32
2022-12-14T10:11:27.615Z,23
2022-12-14T10:13:29.842Z,32
2022-12-14T10:19:38.259Z,32
2022-12-14T10:22:07.182Z,37.4
2022-12-14T10:24:09.007Z,32.4
2022-12-14T10:26:10.884Z,30.2
2022-12-14T10:28:15.897Z,31.6
2022-12-14T10:30:17.829Z,36
2022-12-14T10:32:19.496Z,25
2022-12-14T10:34:21.339Z,37.9
2022-12-14T10:36:23.137Z,22.9
2022-12-14T10:38:24.974Z,22.6
2022-12-14T10:40:33.584Z,22.8
2022-12-14T10:42:31.900Z,28.2
2022-12-14T10:44:33.737Z,29.1
2022-12-14T10:46:35.750Z,26.7
2022-12-14T10:48:37.528Z,28.3
2022-12-14T10:50:39.457Z,28.2
2022-12-14T10:52:41.335Z,27.5
2022-12-14T10:54:43.263Z,23.8
2022-12-14T10:56:49.960Z,33.8
2022-12-14T10:58:50.360Z,30.3
2022-12-14T11:02:54.478Z,28.3
2022-12-14T11:04:56.169Z,23.7
2022-12-14T11:06:58.126Z,25.9
2022-12-14T11:09:00.093Z,32.3
2022-12-14T11:11:05.208Z,25.7
2022-12-14T11:13:07.180Z,21
2022-12-14T11:15:09.158Z,26.6
2022-12-14T11:16:11.804Z,56.3
2022-12-14T11:18:13.800Z,26
2022-12-14T11:20:17.222Z,41.3
2022-12-14T11:22:22.514Z,23.1
2022-12-14T11:24:24.350Z,21.2
2022-12-14T11:28:34.408Z,37.5
2022-12-14T11:30:30.309Z,21
2022-12-14T11:32:32.199Z,25.6
2022-12-14T11:34:34.176Z,34.7
2022-12-14T11:36:36.150Z,40
2022-12-14T11:38:41.343Z,22.9
2022-12-14T11:40:43.311Z,21.7
2022-12-14T11:42:45.264Z,19.3
2022-12-14T11:44:47.215Z,41.4
2022-12-14T11:46:49.308Z,22.5
2022-12-14T11:48:51.189Z,29.6
2022-12-14T11:50:53.175Z,18.4
2022-12-14T11:52:58.356Z,25.9
2022-12-14T11:55:00.332Z,23
2022-12-14T11:57:02.285Z,23.7
2022-12-14T11:59:04.270Z,21.8
2022-12-14T12:01:06.297Z,18.5
2022-12-14T12:03:08.375Z,17.5
2022-12-14T12:05:10.239Z,26.8
2022-12-14T12:07:15.439Z,28.1
2022-12-14T12:09:17.439Z,17.4
2022-12-14T12:11:19.467Z,21.8
2022-12-14T12:12:22.006Z,18.7
2022-12-14T12:14:24.013Z,25.4
2022-12-14T12:16:26.056Z,19.3
2022-12-14T12:18:28.370Z,25.7
2022-12-14T12:20:33.196Z,21.1
2022-12-14T12:22:35.165Z,21.9
2022-12-14T12:24:55.180Z,21.7
2022-12-14T12:26:39.166Z,24.5
2022-12-14T12:28:41.147Z,19.7
2022-12-14T12:30:43.232Z,22.4
2022-12-14T12:32:45.127Z,19.7
2022-12-14T12:34:50.348Z,27.8
2022-12-14T12:37:24.771Z,22.9
2022-12-14T12:38:54.367Z,22.8
2022-12-14T12:40:56.363Z,22.7
2022-12-14T12:42:58.352Z,17.7
2022-12-14T12:45:00.340Z,22.1
2022-12-14T12:47:24.042Z,24.6
2022-12-14T12:49:07.583Z,27.2
2022-12-14T12:51:09.565Z,22.9
2022-12-14T12:53:11.525Z,21.3
2022-12-14T12:55:13.481Z,20.4
2022-12-14T12:57:15.463Z,27.9
2022-12-14T12:59:17.424Z,25.2
2022-12-14T13:01:19.585Z,26.3
2022-12-14T13:03:24.615Z,26.7
2022-12-14T13:05:46.136Z,26
2022-12-14T13:07:28.429Z,23
2022-12-14T13:08:31.362Z,31.2
2022-12-14T13:10:32.905Z,23.3
2022-12-14T13:16:41.928Z,32
2022-12-14T13:18:59.176Z,31
2022-12-14T13:20:45.674Z,29.2
2022-12-14T13:24:54.036Z,31.7
2022-12-14T13:26:57.664Z,25.2
2022-12-14T13:28:53.214Z,34.4
2022-12-14T13:30:58.355Z,30.2
2022-12-14T13:33:00.163Z,25.8
2022-12-14T13:35:02.043Z,31.8
2022-12-14T13:37:03.932Z,26.8
2022-12-14T13:39:05.804Z,22.7
2022-12-14T13:41:07.647Z,28.8
2022-12-14T13:43:09.612Z,25.5
2022-12-14T13:45:14.603Z,31.6
2022-12-14T13:47:16.470Z,31
2022-12-14T13:49:18.287Z,38.7
2022-12-14T13:51:20.137Z,34.3
2022-12-14T13:53:21.956Z,27.2
2022-12-14T13:59:30.701Z,30.7
2022-12-14T14:01:32.587Z,23.3
2022-12-14T14:03:34.685Z,36.2
2022-12-14T14:06:03.290Z,27.1
2022-12-14T14:08:05.127Z,29
2022-12-14T14:10:07.038Z,25.4
2022-12-14T14:12:11.987Z,30.9
2022-12-14T14:14:13.830Z,27
2022-12-14T14:16:29.053Z,41.3
2022-12-14T14:18:17.493Z,20.8
2022-12-14T14:20:19.328Z,27.7
2022-12-14T14:22:24.157Z,29.5
2022-12-14T14:24:22.962Z,24.6
2022-12-14T14:28:29.920Z,27.2
2022-12-14T14:30:31.651Z,23.6
2022-12-14T14:32:33.534Z,25.9
2022-12-14T14:34:35.329Z,30.8
2022-12-14T14:36:37.146Z,23.3
2022-12-14T14:38:38.955Z,24.6
2022-12-14T14:41:14.530Z,26.1
2022-12-14T14:42:45.804Z,25.6
2022-12-14T14:44:47.633Z,23
2022-12-14T14:46:49.501Z,24.5
2022-12-14T14:48:51.245Z,13.9
2022-12-14T14:50:53.083Z,20.6
2022-12-14T14:52:54.891Z,20.5
2022-12-14T14:55:28.295Z,18.6
2022-12-14T14:57:01.741Z,18
2022-12-14T14:59:03.507Z,15.3
2022-12-14T15:00:06.060Z,18.4
2022-12-14T15:02:07.862Z,14.7
2022-12-14T15:04:09.706Z,18.5
2022-12-14T15:06:11.448Z,21.4
2022-12-14T15:08:16.464Z,16.6
2022-12-14T15:10:22.528Z,21.1
2022-12-14T15:12:20.108Z,13.4
2022-12-14T15:14:21.880Z,14.9
2022-12-14T15:16:23.755Z,16.2
2022-12-14T15:18:25.453Z,14.1
2022-12-14T15:20:27.235Z,15.1
2022-12-14T15:22:32.283Z,15
2022-12-14T15:24:34.051Z,17.6
2022-12-14T15:26:35.832Z,15.8
2022-12-14T15:28:37.626Z,11.2
2022-12-14T15:30:39.423Z,19.7
2022-12-14T15:32:45.893Z,13.6
2022-12-14T15:34:42.987Z,13.9
2022-12-14T15:36:47.987Z,14.4
2022-12-14T15:38:49.759Z,13.4
2022-12-14T15:40:51.517Z,16.8
2022-12-14T15:42:53.312Z,14.5
2022-12-14T15:44:55.083Z,14.1
2022-12-14T15:46:56.838Z,14.7
2022-12-14T15:51:03.614Z,17.7
2022-12-14T15:56:11.886Z,19.1
2022-12-14T15:58:11.394Z,20.2
2022-12-14T16:00:13.154Z,16.4
2022-12-14T16:02:15.044Z,21.6
2022-12-14T16:04:19.934Z,19.2
2022-12-14T16:06:21.654Z,21.8
2022-12-14T16:08:23.432Z,42.6
2022-12-14T16:10:25.177Z,28.2
2022-12-14T16:12:26.973Z,24.8
2022-12-14T16:14:28.711Z,26.8
2022-12-14T16:18:35.494Z,30.7
2022-12-14T16:20:37.227Z,29.1
2022-12-14T16:22:38.975Z,22.9
2022-12-14T16:26:42.493Z,39.2
2022-12-14T16:28:44.257Z,43.5
2022-12-14T16:34:57.273Z,50.9
2022-12-14T16:37:30.417Z,48.1
2022-12-14T16:38:56.226Z,44.4
2022-12-14T16:40:57.952Z,55.6
2022-12-14T16:42:59.721Z,60.9
2022-12-14T16:45:01.457Z,49.8
2022-12-14T16:47:06.457Z,40.8
2022-12-14T16:49:08.206Z,38.6
2022-12-14T16:51:16.049Z,38.7
2022-12-14T16:52:12.387Z,37.8
2022-12-14T16:54:14.124Z,40.2
2022-12-14T16:58:17.639Z,33.4
2022-12-14T17:00:22.600Z,52.1
2022-12-14T17:02:24.514Z,47.7
2022-12-14T17:04:26.040Z,37.4
2022-12-14T17:06:27.781Z,44.2
2022-12-14T17:08:29.550Z,36.9
2022-12-14T17:10:31.227Z,35
2022-12-14T17:12:34.525Z,43.2
2022-12-14T17:14:41.480Z,38
2022-12-14T17:16:41.229Z,40
2022-12-14T17:18:42.923Z,30.3
2022-12-14T17:20:44.586Z,38.4
2022-12-14T17:22:49.370Z,36.9
2022-12-14T17:24:48.048Z,34.5
2022-12-14T17:26:49.740Z,36.6
2022-12-14T17:28:54.693Z,50.6
2022-12-14T17:30:56.422Z,32.3
2022-12-14T17:32:58.156Z,25.5
2022-12-14T17:34:59.824Z,24.4
2022-12-14T17:37:01.507Z,28.6
2022-12-14T17:39:03.208Z,20.9
2022-12-14T17:41:04.898Z,26.6
2022-12-14T17:43:09.850Z,32.2
2022-12-14T17:45:11.565Z,18.8
2022-12-14T17:47:13.239Z,27.5
2022-12-14T17:49:42.053Z,26.3
2022-12-14T17:51:43.812Z,31
2022-12-14T17:53:45.453Z,36.1
2022-12-14T17:55:50.374Z,29.6
2022-12-14T17:57:52.109Z,42.4
2022-12-14T17:59:53.771Z,33.8
2022-12-14T18:01:55.649Z,42.5
2022-12-14T18:03:57.258Z,50.8
2022-12-14T18:05:58.943Z,53.6
2022-12-14T18:08:00.615Z,66.5
2022-12-14T18:10:05.623Z,57
2022-12-14T18:18:12.375Z,41.8
2022-12-14T18:20:14.085Z,42.4
2022-12-14T18:22:15.720Z,44.2
2022-12-14T18:26:22.310Z,43.1
2022-12-14T18:28:24.014Z,43.7
2022-12-14T18:30:25.692Z,38.9
2022-12-14T18:32:27.363Z,43.9
2022-12-14T18:38:35.665Z,32.9
2022-12-14T18:42:38.992Z,43
2022-12-14T18:43:43.925Z,41.9
2022-12-14T18:45:43.105Z,35.7
2022-12-14T18:49:46.503Z,34.2
2022-12-14T18:51:51.412Z,36.9
2022-12-14T18:53:53.054Z,36.4
2022-12-14T18:55:54.827Z,47.2
2022-12-14T18:57:56.436Z,37.6
2022-12-14T18:59:58.082Z,38
2022-12-14T19:04:01.503Z,37.8
2022-12-14T19:06:34.999Z,33.3
2022-12-14T19:08:08.031Z,36.6
2022-12-14T19:10:09.684Z,31.1
2022-12-14T19:12:11.345Z,38.2
2022-12-14T19:14:13.027Z,44
2022-12-14T19:16:14.756Z,34.5
2022-12-14T19:18:16.377Z,35.5
2022-12-14T19:20:21.259Z,45.8
2022-12-14T19:22:22.944Z,44.3
2022-12-14T19:24:24.614Z,42.5
2022-12-14T19:28:32.873Z,48.4
2022-12-14T19:32:31.301Z,41.7
2022-12-14T19:39:42.110Z,30.3
2022-12-14T19:41:43.805Z,43.6
2022-12-14T19:43:45.463Z,30.6
2022-12-14T19:45:47.152Z,41.8
2022-12-14T19:47:52.062Z,44.2
2022-12-14T19:58:00.597Z,37.9
2022-12-14T20:00:02.297Z,49
2022-12-14T20:02:07.309Z,38.9
2022-12-14T20:04:08.957Z,25.8
2022-12-14T20:06:10.591Z,31.7
2022-12-14T20:08:12.251Z,33.5
2022-12-14T20:10:13.945Z,25.3
2022-12-14T20:12:15.615Z,30
2022-12-14T20:16:22.485Z,29.6
2022-12-14T20:18:23.922Z,30
2022-12-14T20:20:25.628Z,32.7
2022-12-14T20:22:27.296Z,45.1
2022-12-14T20:24:29.023Z,36.7
2022-12-14T20:28:32.361Z,39.8
2022-12-14T20:30:37.295Z,32
2022-12-14T20:34:40.697Z,25.1
2022-12-14T20:35:43.177Z,30.6
2022-12-14T20:37:44.835Z,29.9
2022-12-14T20:39:46.526Z,24.5
2022-12-14T20:41:48.241Z,29.1
2022-12-14T20:43:53.180Z,26.3
2022-12-14T20:45:54.868Z,27.5
2022-12-14T20:47:56.592Z,28.8
2022-12-14T20:49:58.274Z,35.4
2022-12-14T20:52:00.014Z,33.6
2022-12-14T20:54:01.694Z,24.9
2022-12-14T20:56:03.368Z,26.2
2022-12-14T20:58:08.299Z,28.6
2022-12-14T21:00:10.035Z,28.5
2022-12-14T21:02:11.984Z,24.2
2022-12-14T21:04:13.453Z,28.9
2022-12-14T21:06:15.120Z,28.7
2022-12-14T21:08:16.838Z,20.4
2022-12-14T21:10:18.585Z,26.7
2022-12-14T21:12:23.506Z,19.9
2022-12-14T21:18:28.642Z,23.9
2022-12-14T21:20:30.351Z,23.5
2022-12-14T21:22:32.086Z,23.2
2022-12-14T21:25:03.023Z,25.1
2022-12-14T21:26:38.719Z,23.4
2022-12-14T21:28:40.467Z,27.9
2022-12-14T21:30:42.169Z,27.5
2022-12-14T21:35:12.806Z,23.8
2022-12-14T21:37:14.537Z,33.6
2022-12-14T21:39:19.491Z,22.4
2022-12-14T21:41:21.200Z,22.7
2022-12-14T21:43:22.887Z,27.8
2022-12-14T21:45:24.597Z,24.2
2022-12-14T21:47:26.323Z,29.7
2022-12-14T21:53:35.564Z,24.9
2022-12-14T21:55:36.426Z,21.4
2022-12-14T21:57:38.116Z,25.8
2022-12-14T21:59:39.836Z,18.3
2022-12-14T22:01:41.698Z,25.9
2022-12-14T22:03:43.330Z,28
2022-12-14T22:05:44.946Z,23
2022-12-14T22:09:51.630Z,23.8
2022-12-14T22:11:53.323Z,27.9
2022-12-14T22:15:56.785Z,18.8
2022-12-14T22:17:58.498Z,20.7
2022-12-14T22:20:00.190Z,21.8
2022-12-14T22:22:05.161Z,21.5
2022-12-14T22:24:06.893Z,28.2
2022-12-14T22:26:08.599Z,31.5
2022-12-14T22:29:12.765Z,22.4
2022-12-14T22:31:14.514Z,30.5
2022-12-14T22:33:16.229Z,24.3
2022-12-14T22:35:21.192Z,28.4
2022-12-14T22:37:22.913Z,23.3
2022-12-14T22:41:26.325Z,16.8
2022-12-14T22:43:30.628Z,20.2
2022-12-14T22:45:29.798Z,26
2022-12-14T22:47:31.521Z,23.7
2022-12-14T22:53:39.882Z,28.8
2022-12-14T22:55:41.624Z,23
2022-12-14T22:57:43.334Z,23.4
2022-12-14T22:59:45.029Z,20.3
2022-12-14T23:01:49.594Z,26.5
2022-12-14T23:03:53.407Z,23
2022-12-14T23:06:00.381Z,30.9
2022-12-14T23:07:56.670Z,24.4
2022-12-14T23:09:58.404Z,22.5
2022-12-14T23:12:00.171Z,28.8
2022-12-14T23:14:01.876Z,27.2
2022-12-14T23:16:03.551Z,25.2
2022-12-14T23:20:10.261Z,21.3
2022-12-14T23:22:11.959Z,19.8
2022-12-14T23:23:14.511Z,30.3
2022-12-14T23:25:16.167Z,19.8
2022-12-14T23:29:19.590Z,27.7
2022-12-14T23:31:24.741Z,26.7
2022-12-14T23:33:26.282Z,23.9
2022-12-14T23:35:27.977Z,21
2022-12-14T23:37:29.720Z,18.6
2022-12-14T23:39:31.423Z,31.3
2022-12-14T23:41:33.153Z,37.2
2022-12-14T23:43:35.182Z,19.3
2022-12-14T23:45:39.842Z,21.3
2022-12-14T23:47:41.549Z,30.3
2022-12-14T23:49:43.274Z,14.8
2022-12-14T23:51:45.020Z,16.8
2022-12-14T23:53:50.198Z,16.7
2022-12-14T23:55:48.429Z,27.1
2022-12-14T23:57:50.136Z,23.9
2022-12-14T23:59:55.108Z,20.2
